createdAt,value
2018-02-19T00:00:22.849Z,1020.45
2018-02-19T00:01:03.421Z,1020.45
2018-02-19T00:01:43.980Z,1020.4
2018-02-19T00:02:24.533Z,1020.42
2018-02-19T00:03:05.088Z,1020.4
2018-02-19T00:03:46.173Z,1020.38
2018-02-19T00:04:26.730Z,1020.41
2018-02-19T00:05:07.300Z,1020.4
2018-02-19T00:05:47.862Z,1020.35
2018-02-19T00:06:28.502Z,1020.34
2018-02-19T00:07:09.057Z,1020.36
2018-02-19T00:07:49.612Z,1020.31
2018-02-19T00:08:30.207Z,1020.26
2018-02-19T00:09:10.788Z,1020.3
2018-02-19T00:09:51.373Z,1020.31
2018-02-19T00:10:31.919Z,1020.29
2018-02-19T00:11:12.484Z,1020.31
2018-02-19T00:11:53.030Z,1020.34
2018-02-19T00:12:33.581Z,1020.29
2018-02-19T00:13:14.132Z,1020.36
2018-02-19T00:13:54.680Z,1020.35
2018-02-19T00:14:35.218Z,1020.34
2018-02-19T00:15:15.764Z,1020.37
2018-02-19T00:15:56.319Z,1020.36
2018-02-19T00:16:36.891Z,1020.35
2018-02-19T00:17:17.439Z,1020.33
2018-02-19T00:17:58.026Z,1020.37
2018-02-19T00:18:38.548Z,1020.33
2018-02-19T00:19:19.098Z,1020.31
2018-02-19T00:19:59.646Z,1020.32
2018-02-19T00:20:40.193Z,1020.34
2018-02-19T00:21:20.740Z,1020.42
2018-02-19T00:22:01.293Z,1020.34
2018-02-19T00:22:41.933Z,1020.35
2018-02-19T00:23:22.455Z,1020.33
2018-02-19T00:24:03.013Z,1020.31
2018-02-19T00:24:43.565Z,1020.3
2018-02-19T00:25:24.126Z,1020.3
2018-02-19T00:26:04.685Z,1020.29
2018-02-19T00:26:45.247Z,1020.28
2018-02-19T00:27:25.787Z,1020.28
2018-02-19T00:28:06.355Z,1020.25
2018-02-19T00:28:46.912Z,1020.27
2018-02-19T00:29:27.465Z,1020.29
2018-02-19T00:30:08.018Z,1020.3
2018-02-19T00:30:48.587Z,1020.32
2018-02-19T00:31:29.144Z,1020.29
2018-02-19T00:32:09.711Z,1020.29
2018-02-19T00:32:50.276Z,1020.26
2018-02-19T00:33:30.835Z,1020.29
2018-02-19T00:34:11.427Z,1020.27
2018-02-19T00:34:51.975Z,1020.28
2018-02-19T00:35:32.530Z,1020.24
2018-02-19T00:38:00.574Z,1020.2
2018-02-19T00:38:41.135Z,1020.19
2018-02-19T00:39:21.684Z,1020.23
2018-02-19T00:40:02.235Z,1020.21
2018-02-19T00:40:42.803Z,1020.22
2018-02-19T00:41:23.339Z,1020.2
2018-02-19T00:42:03.883Z,1020.2
2018-02-19T00:42:44.453Z,1020.21
2018-02-19T00:43:24.996Z,1020.2
2018-02-19T00:44:05.541Z,1020.18
2018-02-19T00:44:46.099Z,1020.14
2018-02-19T00:45:26.657Z,1020.15
2018-02-19T00:46:07.218Z,1020.15
2018-02-19T00:46:47.767Z,1020.16
2018-02-19T00:47:28.309Z,1020.18
2018-02-19T00:48:08.865Z,1020.16
2018-02-19T00:48:49.443Z,1020.12
2018-02-19T00:49:29.963Z,1020.2
2018-02-19T00:50:10.522Z,1020.15
2018-02-19T00:50:51.070Z,1020.18
2018-02-19T00:51:31.616Z,1020.14
2018-02-19T00:52:12.179Z,1020.16
2018-02-19T00:52:52.756Z,1020.14
2018-02-19T00:53:33.287Z,1020.1
2018-02-19T00:54:13.840Z,1020.11
2018-02-19T00:54:54.384Z,1020.11
2018-02-19T00:55:34.935Z,1020.1
2018-02-19T00:56:15.500Z,1020.06
2018-02-19T00:56:56.042Z,1020.1
2018-02-19T00:57:36.576Z,1020.1
2018-02-19T00:58:17.139Z,1020.08
2018-02-19T00:58:57.684Z,1020.07
2018-02-19T00:59:38.240Z,1020.12
2018-02-19T01:00:18.787Z,1020.11
2018-02-19T01:00:59.344Z,1020.14
2018-02-19T01:01:39.900Z,1020.09
2018-02-19T01:02:20.448Z,1020.09
2018-02-19T01:03:01.002Z,1020.14
2018-02-19T01:03:41.594Z,1020.1
2018-02-19T01:04:22.152Z,1020.11
2018-02-19T01:05:02.718Z,1020.11
2018-02-19T01:05:43.270Z,1020.11
2018-02-19T01:06:23.821Z,1020.11
2018-02-19T01:07:04.387Z,1020.13
2018-02-19T01:07:44.954Z,1020.14
2018-02-19T01:08:25.506Z,1020.11
2018-02-19T01:09:06.045Z,1020.12
2018-02-19T01:09:46.601Z,1020.08
2018-02-19T01:10:27.179Z,1020.08
2018-02-19T01:11:07.697Z,1020.06
2018-02-19T01:11:48.247Z,1020.07
2018-02-19T01:12:28.872Z,1020.06
2018-02-19T01:13:09.434Z,1020
2018-02-19T01:13:49.985Z,1020.06
2018-02-19T01:14:30.554Z,1020.01
2018-02-19T01:15:11.102Z,1020
2018-02-19T01:15:51.663Z,1020.01
2018-02-19T01:16:32.219Z,1019.99
2018-02-19T01:17:12.773Z,1019.99
2018-02-19T01:17:53.333Z,1019.98
2018-02-19T01:18:33.872Z,1019.93
2018-02-19T01:19:14.427Z,1019.99
2018-02-19T01:19:54.974Z,1019.96
2018-02-19T01:20:35.527Z,1019.91
2018-02-19T01:21:16.084Z,1019.96
2018-02-19T01:21:56.626Z,1019.95
2018-02-19T01:22:37.187Z,1019.95
2018-02-19T01:23:17.733Z,1019.92
2018-02-19T01:23:58.297Z,1019.91
2018-02-19T01:24:38.848Z,1019.91
2018-02-19T01:25:19.455Z,1019.93
2018-02-19T01:26:00.022Z,1019.89
2018-02-19T01:26:40.582Z,1019.91
2018-02-19T01:27:21.135Z,1019.88
2018-02-19T01:28:01.742Z,1019.88
2018-02-19T01:28:42.306Z,1019.85
2018-02-19T01:29:22.875Z,1019.89
2018-02-19T01:30:03.454Z,1019.89
2018-02-19T01:30:43.994Z,1019.83
2018-02-19T01:31:24.542Z,1019.83
2018-02-19T01:32:05.093Z,1019.83
2018-02-19T01:32:45.651Z,1019.8
2018-02-19T01:33:26.214Z,1019.79
2018-02-19T01:34:06.772Z,1019.82
2018-02-19T01:34:47.307Z,1019.78
2018-02-19T01:35:27.861Z,1019.79
2018-02-19T01:36:08.504Z,1019.79
2018-02-19T01:36:49.043Z,1019.77
2018-02-19T01:37:29.605Z,1019.76
2018-02-19T01:38:10.156Z,1019.74
2018-02-19T01:38:50.716Z,1019.72
2018-02-19T01:39:31.287Z,1019.74
2018-02-19T01:40:11.822Z,1019.73
2018-02-19T01:40:52.368Z,1019.72
2018-02-19T01:41:32.916Z,1019.77
2018-02-19T01:42:13.464Z,1019.69
2018-02-19T01:42:54.038Z,1019.69
2018-02-19T01:43:34.593Z,1019.66
2018-02-19T01:44:15.181Z,1019.65
2018-02-19T01:44:55.759Z,1019.61
2018-02-19T01:45:36.341Z,1019.61
2018-02-19T01:46:16.885Z,1019.6
2018-02-19T01:46:57.445Z,1019.61
2018-02-19T01:47:38.002Z,1019.6
2018-02-19T01:48:18.530Z,1019.59
2018-02-19T01:48:59.084Z,1019.57
2018-02-19T01:49:39.636Z,1019.57
2018-02-19T01:50:20.193Z,1019.53
2018-02-19T01:51:00.748Z,1019.53
2018-02-19T01:51:41.283Z,1019.54
2018-02-19T01:52:21.843Z,1019.49
2018-02-19T01:53:02.402Z,1019.51
2018-02-19T01:53:42.953Z,1019.51
2018-02-19T01:54:23.506Z,1019.51
2018-02-19T01:55:04.055Z,1019.5
2018-02-19T01:55:44.607Z,1019.47
2018-02-19T01:56:25.179Z,1019.42
2018-02-19T01:57:05.769Z,1019.46
2018-02-19T01:57:46.343Z,1019.44
2018-02-19T01:58:26.924Z,1019.42
2018-02-19T01:59:07.473Z,1019.39
2018-02-19T01:59:48.027Z,1019.37
2018-02-19T02:00:28.566Z,1019.36
2018-02-19T02:01:09.138Z,1019.35
2018-02-19T02:01:49.702Z,1019.36
2018-02-19T02:02:30.233Z,1019.38
2018-02-19T02:03:10.776Z,1019.3
2018-02-19T02:03:51.332Z,1019.22
2018-02-19T02:04:31.890Z,1019.29
2018-02-19T02:05:12.448Z,1019.25
2018-02-19T02:05:53.015Z,1019.23
2018-02-19T02:06:33.579Z,1019.26
2018-02-19T02:07:14.143Z,1019.24
2018-02-19T02:07:54.691Z,1019.25
2018-02-19T02:08:35.263Z,1019.24
2018-02-19T02:09:15.821Z,1019.22
2018-02-19T02:09:56.350Z,1019.2
2018-02-19T02:10:36.928Z,1019.19
2018-02-19T02:11:17.502Z,1019.2
2018-02-19T02:11:58.049Z,1019.15
2018-02-19T02:12:38.646Z,1019.18
2018-02-19T02:13:19.204Z,1019.14
2018-02-19T02:13:59.783Z,1019.13
2018-02-19T02:14:40.339Z,1019.12
2018-02-19T02:15:20.934Z,1019.1
2018-02-19T02:16:01.463Z,1019.11
2018-02-19T02:16:42.025Z,1019.1
2018-02-19T02:17:22.599Z,1019.06
2018-02-19T02:18:03.159Z,1019.07
2018-02-19T02:18:43.713Z,1019.07
2018-02-19T02:19:24.288Z,1019.08
2018-02-19T02:20:04.870Z,1019.01
2018-02-19T02:20:45.427Z,1018.99
2018-02-19T02:21:25.978Z,1019.03
2018-02-19T02:22:06.558Z,1018.98
2018-02-19T02:22:47.122Z,1019
2018-02-19T02:23:27.668Z,1019.02
2018-02-19T02:24:08.212Z,1019.02
2018-02-19T02:24:48.773Z,1019.01
2018-02-19T02:25:29.307Z,1019
2018-02-19T02:26:09.882Z,1018.96
2018-02-19T02:26:50.444Z,1018.99
2018-02-19T02:27:31.006Z,1018.97
2018-02-19T02:28:11.718Z,1018.96
2018-02-19T02:28:52.277Z,1018.95
2018-02-19T02:29:32.834Z,1018.96
2018-02-19T02:30:13.392Z,1018.94
2018-02-19T02:30:53.959Z,1018.96
2018-02-19T02:31:34.522Z,1018.97
2018-02-19T02:32:15.073Z,1018.96
2018-02-19T02:32:55.641Z,1019.01
2018-02-19T02:33:36.207Z,1018.94
2018-02-19T02:34:16.747Z,1019.02
2018-02-19T02:34:57.299Z,1018.97
2018-02-19T02:35:37.860Z,1018.95
2018-02-19T02:36:18.411Z,1018.96
2018-02-19T02:36:58.958Z,1018.96
2018-02-19T02:37:39.511Z,1018.95
2018-02-19T02:38:20.067Z,1018.96
2018-02-19T02:39:00.649Z,1018.96
2018-02-19T02:39:41.202Z,1018.94
2018-02-19T02:40:21.764Z,1018.94
2018-02-19T02:41:02.324Z,1018.97
2018-02-19T02:41:42.879Z,1018.92
2018-02-19T02:42:23.446Z,1018.97
2018-02-19T02:43:03.995Z,1018.9
2018-02-19T02:43:44.553Z,1018.92
2018-02-19T02:44:25.094Z,1018.92
2018-02-19T02:45:05.638Z,1018.92
2018-02-19T02:45:46.194Z,1018.89
2018-02-19T02:46:26.741Z,1018.84
2018-02-19T02:47:07.290Z,1018.86
2018-02-19T02:47:47.845Z,1018.87
2018-02-19T02:48:28.397Z,1018.88
2018-02-19T02:49:08.947Z,1018.87
2018-02-19T02:49:49.503Z,1018.88
2018-02-19T02:50:30.043Z,1018.85
2018-02-19T02:51:10.599Z,1018.85
2018-02-19T02:51:51.199Z,1018.89
2018-02-19T02:52:31.749Z,1018.87
2018-02-19T02:53:12.323Z,1018.86
2018-02-19T02:53:52.886Z,1018.85
2018-02-19T02:54:33.452Z,1018.84
2018-02-19T02:55:13.997Z,1018.81
2018-02-19T02:55:54.560Z,1018.79
2018-02-19T02:56:35.113Z,1018.78
2018-02-19T02:57:15.680Z,1018.8
2018-02-19T02:57:56.234Z,1018.78
2018-02-19T02:58:36.780Z,1018.75
2018-02-19T02:59:17.317Z,1018.76
2018-02-19T02:59:57.873Z,1018.8
2018-02-19T03:00:38.416Z,1018.75
2018-02-19T03:01:18.968Z,1018.74
2018-02-19T03:01:59.519Z,1018.7
2018-02-19T03:02:40.100Z,1018.72
2018-02-19T03:03:20.656Z,1018.72
2018-02-19T03:04:01.226Z,1018.68
2018-02-19T03:04:41.765Z,1018.7
2018-02-19T03:05:22.317Z,1018.73
2018-02-19T03:06:02.859Z,1018.67
2018-02-19T03:06:43.423Z,1018.65
2018-02-19T03:07:23.980Z,1018.67
2018-02-19T03:08:04.554Z,1018.68
2018-02-19T03:08:45.109Z,1018.66
2018-02-19T03:09:25.663Z,1018.67
2018-02-19T03:10:06.211Z,1018.67
2018-02-19T03:10:46.758Z,1018.65
2018-02-19T03:11:27.309Z,1018.62
2018-02-19T03:12:07.861Z,1018.62
2018-02-19T03:12:48.412Z,1018.63
2018-02-19T03:13:28.961Z,1018.59
2018-02-19T03:14:09.512Z,1018.59
2018-02-19T03:14:50.065Z,1018.55
2018-02-19T03:15:30.618Z,1018.59
2018-02-19T03:16:11.176Z,1018.57
2018-02-19T03:16:51.736Z,1018.5
2018-02-19T03:17:32.301Z,1018.49
2018-02-19T03:18:12.855Z,1018.58
2018-02-19T03:18:53.423Z,1018.54
2018-02-19T03:19:33.990Z,1018.48
2018-02-19T03:20:14.550Z,1018.57
2018-02-19T03:20:55.104Z,1018.54
2018-02-19T03:21:35.647Z,1018.5
2018-02-19T03:22:16.230Z,1018.52
2018-02-19T03:22:56.749Z,1018.53
2018-02-19T03:23:37.293Z,1018.5
2018-02-19T03:24:17.886Z,1018.47
2018-02-19T03:24:58.418Z,1018.52
2018-02-19T03:25:39.149Z,1018.46
2018-02-19T03:26:19.706Z,1018.47
2018-02-19T03:27:00.256Z,1018.47
2018-02-19T03:27:40.806Z,1018.47
2018-02-19T03:28:21.417Z,1018.42
2018-02-19T03:29:01.968Z,1018.48
2018-02-19T03:29:42.520Z,1018.44
2018-02-19T03:30:23.079Z,1018.44
2018-02-19T03:31:03.635Z,1018.43
2018-02-19T03:31:44.178Z,1018.47
2018-02-19T03:32:24.734Z,1018.43
2018-02-19T03:33:05.301Z,1018.43
2018-02-19T03:33:45.847Z,1018.41
2018-02-19T03:34:26.391Z,1018.39
2018-02-19T03:35:06.959Z,1018.4
2018-02-19T03:35:47.522Z,1018.36
2018-02-19T03:36:28.080Z,1018.39
2018-02-19T03:37:08.642Z,1018.36
2018-02-19T03:37:49.192Z,1018.36
2018-02-19T03:38:29.734Z,1018.34
2018-02-19T03:39:10.295Z,1018.32
2018-02-19T03:39:50.851Z,1018.32
2018-02-19T03:40:31.395Z,1018.31
2018-02-19T03:41:11.942Z,1018.27
2018-02-19T03:41:52.532Z,1018.29
2018-02-19T03:42:33.084Z,1018.25
2018-02-19T03:43:13.628Z,1018.3
2018-02-19T03:43:54.181Z,1018.29
2018-02-19T03:44:34.717Z,1018.26
2018-02-19T03:45:15.285Z,1018.32
2018-02-19T03:45:55.846Z,1018.25
2018-02-19T03:46:36.387Z,1018.25
2018-02-19T03:47:16.913Z,1018.24
2018-02-19T03:47:57.468Z,1018.27
2018-02-19T03:48:38.013Z,1018.26
2018-02-19T03:49:18.572Z,1018.26
2018-02-19T03:49:59.145Z,1018.3
2018-02-19T03:50:39.701Z,1018.28
2018-02-19T03:51:20.260Z,1018.24
2018-02-19T03:52:00.804Z,1018.25
2018-02-19T03:52:41.394Z,1018.24
2018-02-19T03:53:21.955Z,1018.24
2018-02-19T03:54:02.515Z,1018.27
2018-02-19T03:54:43.067Z,1018.24
2018-02-19T03:55:23.611Z,1018.26
2018-02-19T03:56:04.163Z,1018.25
2018-02-19T03:56:44.711Z,1018.23
2018-02-19T03:57:25.273Z,1018.25
2018-02-19T03:58:05.832Z,1018.25
2018-02-19T03:58:46.409Z,1018.27
2018-02-19T03:59:26.967Z,1018.27
2018-02-19T04:00:07.545Z,1018.22
2018-02-19T04:00:48.101Z,1018.24
2018-02-19T04:01:28.671Z,1018.21
2018-02-19T04:02:09.220Z,1018.22
2018-02-19T04:02:49.775Z,1018.22
2018-02-19T04:03:30.340Z,1018.21
2018-02-19T04:04:10.896Z,1018.2
2018-02-19T04:04:51.472Z,1018.22
2018-02-19T04:05:32.023Z,1018.21
2018-02-19T04:06:12.578Z,1018.22
2018-02-19T04:06:53.136Z,1018.22
2018-02-19T04:07:33.719Z,1018.17
2018-02-19T04:08:14.265Z,1018.22
2018-02-19T04:08:54.813Z,1018.25
2018-02-19T04:09:35.367Z,1018.2
2018-02-19T04:10:15.942Z,1018.21
2018-02-19T04:10:56.480Z,1018.21
2018-02-19T04:11:37.028Z,1018.18
2018-02-19T04:12:17.594Z,1018.24
2018-02-19T04:12:58.132Z,1018.19
2018-02-19T04:13:38.703Z,1018.22
2018-02-19T04:14:19.243Z,1018.16
2018-02-19T04:14:59.791Z,1018.19
2018-02-19T04:15:40.346Z,1018.14
2018-02-19T04:16:20.886Z,1018.21
2018-02-19T04:17:01.465Z,1018.17
2018-02-19T04:17:42.047Z,1018.2
2018-02-19T04:18:22.566Z,1018.12
2018-02-19T04:19:03.125Z,1018.11
2018-02-19T04:19:43.678Z,1018.1
2018-02-19T04:20:24.227Z,1018.13
2018-02-19T04:21:04.786Z,1018.09
2018-02-19T04:21:45.346Z,1018.06
2018-02-19T04:22:25.904Z,1018.08
2018-02-19T04:23:06.461Z,1018.06
2018-02-19T04:23:47.020Z,1018.08
2018-02-19T04:24:27.570Z,1018.05
2018-02-19T04:25:08.103Z,1018.05
2018-02-19T04:25:48.693Z,1018.1
2018-02-19T04:26:29.219Z,1018.07
2018-02-19T04:27:09.771Z,1018.04
2018-02-19T04:27:50.323Z,1018.06
2018-02-19T04:28:30.878Z,1018.06
2018-02-19T04:29:11.418Z,1017.99
2018-02-19T04:29:51.976Z,1018.01
2018-02-19T04:30:32.531Z,1017.99
2018-02-19T04:31:13.105Z,1018.02
2018-02-19T04:31:53.661Z,1017.98
2018-02-19T04:32:34.233Z,1017.99
2018-02-19T04:33:14.788Z,1017.99
2018-02-19T04:33:55.333Z,1017.99
2018-02-19T04:34:35.902Z,1017.95
2018-02-19T04:35:16.475Z,1017.99
2018-02-19T04:35:57.024Z,1017.95
2018-02-19T04:36:37.556Z,1017.95
2018-02-19T04:37:18.114Z,1017.89
2018-02-19T04:37:58.670Z,1017.9
2018-02-19T04:38:39.222Z,1017.88
2018-02-19T04:39:19.793Z,1017.88
2018-02-19T04:40:00.373Z,1017.88
2018-02-19T04:40:40.918Z,1017.84
2018-02-19T04:41:21.513Z,1017.81
2018-02-19T04:42:02.050Z,1017.83
2018-02-19T04:42:42.618Z,1017.83
2018-02-19T04:43:23.160Z,1017.81
2018-02-19T04:44:03.718Z,1017.82
2018-02-19T04:44:44.277Z,1017.78
2018-02-19T04:45:24.827Z,1017.82
2018-02-19T04:46:05.380Z,1017.8
2018-02-19T04:46:45.952Z,1017.8
2018-02-19T04:47:26.575Z,1017.78
2018-02-19T04:48:07.134Z,1017.8
2018-02-19T04:48:47.685Z,1017.77
2018-02-19T04:49:28.236Z,1017.78
2018-02-19T04:50:08.796Z,1017.84
2018-02-19T04:50:49.363Z,1017.82
2018-02-19T04:51:29.913Z,1017.81
2018-02-19T04:52:10.474Z,1017.83
2018-02-19T04:52:51.018Z,1017.85
2018-02-19T04:53:31.571Z,1017.81
2018-02-19T04:54:12.120Z,1017.84
2018-02-19T04:54:52.662Z,1017.86
2018-02-19T04:55:33.210Z,1017.83
2018-02-19T04:56:13.768Z,1017.81
2018-02-19T04:56:54.309Z,1017.8
2018-02-19T04:57:34.847Z,1017.82
2018-02-19T04:58:15.398Z,1017.76
2018-02-19T04:58:55.953Z,1017.79
2018-02-19T04:59:36.503Z,1017.82
2018-02-19T05:00:17.057Z,1017.86
2018-02-19T05:00:57.605Z,1017.84
2018-02-19T05:01:38.145Z,1017.86
2018-02-19T05:02:18.699Z,1017.85
2018-02-19T05:02:59.248Z,1017.87
2018-02-19T05:03:39.803Z,1017.86
2018-02-19T05:04:20.367Z,1017.86
2018-02-19T05:05:00.916Z,1017.85
2018-02-19T05:05:41.476Z,1017.82
2018-02-19T05:06:22.027Z,1017.78
2018-02-19T05:07:02.568Z,1017.81
2018-02-19T05:07:43.117Z,1017.8
2018-02-19T05:08:23.670Z,1017.79
2018-02-19T05:09:04.219Z,1017.8
2018-02-19T05:09:44.770Z,1017.75
2018-02-19T05:10:25.310Z,1017.78
2018-02-19T05:11:05.877Z,1017.82
2018-02-19T05:11:46.428Z,1017.83
2018-02-19T05:12:27.000Z,1017.76
2018-02-19T05:13:07.532Z,1017.8
2018-02-19T05:13:48.091Z,1017.74
2018-02-19T05:14:28.640Z,1017.76
2018-02-19T05:15:09.198Z,1017.78
2018-02-19T05:15:49.777Z,1017.78
2018-02-19T05:16:30.332Z,1017.78
2018-02-19T05:17:10.883Z,1017.77
2018-02-19T05:17:51.484Z,1017.79
2018-02-19T05:18:32.027Z,1017.8
2018-02-19T05:19:12.610Z,1017.81
2018-02-19T05:19:53.182Z,1017.79
2018-02-19T05:20:33.768Z,1017.83
2018-02-19T05:21:14.321Z,1017.81
2018-02-19T05:21:54.887Z,1017.78
2018-02-19T05:22:35.437Z,1017.78
2018-02-19T05:23:16.008Z,1017.76
2018-02-19T05:23:56.649Z,1017.79
2018-02-19T05:24:37.202Z,1017.78
2018-02-19T05:25:17.784Z,1017.8
2018-02-19T05:25:58.322Z,1017.79
2018-02-19T05:26:38.936Z,1017.76
2018-02-19T05:27:19.510Z,1017.77
2018-02-19T05:28:00.050Z,1017.76
2018-02-19T05:28:40.603Z,1017.76
2018-02-19T05:29:21.165Z,1017.76
2018-02-19T05:30:01.739Z,1017.78
2018-02-19T05:30:42.314Z,1017.75
2018-02-19T05:31:22.872Z,1017.75
2018-02-19T05:32:03.524Z,1017.76
2018-02-19T05:32:44.073Z,1017.72
2018-02-19T05:33:24.631Z,1017.72
2018-02-19T05:34:05.201Z,1017.77
2018-02-19T05:34:45.759Z,1017.78
2018-02-19T05:35:26.314Z,1017.78
2018-02-19T05:36:06.877Z,1017.79
2018-02-19T05:36:47.439Z,1017.74
2018-02-19T05:37:27.991Z,1017.76
2018-02-19T05:38:08.584Z,1017.74
2018-02-19T05:38:49.132Z,1017.75
2018-02-19T05:39:29.733Z,1017.76
2018-02-19T05:40:10.292Z,1017.8
2018-02-19T05:40:50.846Z,1017.78
2018-02-19T05:41:31.393Z,1017.74
2018-02-19T05:42:11.938Z,1017.8
2018-02-19T05:42:52.505Z,1017.81
2018-02-19T05:43:33.123Z,1017.77
2018-02-19T05:44:13.694Z,1017.75
2018-02-19T05:44:54.237Z,1017.75
2018-02-19T05:45:34.799Z,1017.74
2018-02-19T05:46:15.345Z,1017.74
2018-02-19T05:46:55.901Z,1017.77
2018-02-19T05:47:37.548Z,1017.75
2018-02-19T05:48:17.951Z,1017.73
2018-02-19T05:48:58.495Z,1017.75
2018-02-19T05:49:39.069Z,1017.75
2018-02-19T05:50:19.631Z,1017.75
2018-02-19T05:51:00.197Z,1017.73
2018-02-19T05:51:40.748Z,1017.74
2018-02-19T05:52:21.294Z,1017.71
2018-02-19T05:53:01.850Z,1017.78
2018-02-19T05:53:42.547Z,1017.77
2018-02-19T05:54:23.076Z,1017.74
2018-02-19T05:55:03.730Z,1017.71
2018-02-19T05:55:44.281Z,1017.74
2018-02-19T05:56:24.863Z,1017.76
2018-02-19T05:57:05.415Z,1017.79
2018-02-19T05:57:46.008Z,1017.78
2018-02-19T05:58:26.567Z,1017.78
2018-02-19T05:59:07.120Z,1017.79
2018-02-19T05:59:47.675Z,1017.8
2018-02-19T06:00:28.248Z,1017.78
2018-02-19T06:01:08.826Z,1017.83
2018-02-19T06:01:49.341Z,1017.85
2018-02-19T06:02:29.907Z,1017.85
2018-02-19T06:03:10.427Z,1017.87
2018-02-19T06:03:51.019Z,1017.8
2018-02-19T06:04:31.591Z,1017.83
2018-02-19T06:05:12.143Z,1017.76
2018-02-19T06:05:52.852Z,1017.8
2018-02-19T06:06:33.417Z,1017.72
2018-02-19T06:07:13.970Z,1017.79
2018-02-19T06:07:54.532Z,1017.71
2018-02-19T06:08:35.062Z,1017.71
2018-02-19T06:09:15.722Z,1017.74
2018-02-19T06:09:56.272Z,1017.71
2018-02-19T06:10:36.849Z,1017.69
2018-02-19T06:11:17.400Z,1017.65
2018-02-19T06:11:57.961Z,1017.67
2018-02-19T06:12:38.500Z,1017.67
2018-02-19T06:13:19.053Z,1017.66
2018-02-19T06:13:59.605Z,1017.64
2018-02-19T06:14:40.150Z,1017.68
2018-02-19T06:15:20.707Z,1017.66
2018-02-19T06:16:01.265Z,1017.64
2018-02-19T06:16:41.795Z,1017.65
2018-02-19T06:17:22.349Z,1017.66
2018-02-19T06:18:02.913Z,1017.66
2018-02-19T06:18:43.463Z,1017.65
2018-02-19T06:19:24.024Z,1017.65
2018-02-19T06:20:04.572Z,1017.65
2018-02-19T06:20:45.116Z,1017.72
2018-02-19T06:21:25.674Z,1017.72
2018-02-19T06:22:06.241Z,1017.66
2018-02-19T06:22:46.807Z,1017.67
2018-02-19T06:23:27.356Z,1017.67
2018-02-19T06:24:07.903Z,1017.71
2018-02-19T06:24:48.459Z,1017.69
2018-02-19T06:25:29.019Z,1017.7
2018-02-19T06:26:09.566Z,1017.72
2018-02-19T06:26:50.120Z,1017.68
2018-02-19T06:27:30.719Z,1017.67
2018-02-19T06:28:11.261Z,1017.69
2018-02-19T06:28:51.809Z,1017.73
2018-02-19T06:29:32.360Z,1017.66
2018-02-19T06:30:12.920Z,1017.72
2018-02-19T06:30:53.472Z,1017.68
2018-02-19T06:31:34.036Z,1017.67
2018-02-19T06:32:14.612Z,1017.68
2018-02-19T06:32:55.169Z,1017.7
2018-02-19T06:33:35.731Z,1017.67
2018-02-19T06:34:16.323Z,1017.64
2018-02-19T06:34:56.890Z,1017.68
2018-02-19T06:35:37.444Z,1017.67
2018-02-19T06:36:17.996Z,1017.71
2018-02-19T06:36:58.542Z,1017.67
2018-02-19T06:37:39.156Z,1017.67
2018-02-19T06:38:19.727Z,1017.68
2018-02-19T06:39:00.278Z,1017.68
2018-02-19T06:39:40.831Z,1017.69
2018-02-19T06:40:21.380Z,1017.63
2018-02-19T06:41:01.929Z,1017.69
2018-02-19T06:41:42.579Z,1017.69
2018-02-19T06:42:23.149Z,1017.68
2018-02-19T06:43:03.703Z,1017.67
2018-02-19T06:43:44.256Z,1017.67
2018-02-19T06:44:24.814Z,1017.65
2018-02-19T06:45:05.377Z,1017.66
2018-02-19T06:45:45.932Z,1017.63
2018-02-19T06:46:26.481Z,1017.64
2018-02-19T06:47:07.035Z,1017.63
2018-02-19T06:47:47.570Z,1017.67
2018-02-19T06:48:28.141Z,1017.65
2018-02-19T06:49:08.990Z,1017.63
2018-02-19T06:49:50.123Z,1017.7
2018-02-19T06:50:30.690Z,1017.64
2018-02-19T06:51:11.228Z,1017.67
2018-02-19T06:51:51.766Z,1017.65
2018-02-19T06:52:32.320Z,1017.67
2018-02-19T06:53:12.870Z,1017.65
2018-02-19T06:53:53.447Z,1017.66
2018-02-19T06:54:33.996Z,1017.68
2018-02-19T06:55:14.554Z,1017.66
2018-02-19T06:55:55.099Z,1017.69
2018-02-19T06:56:35.650Z,1017.64
2018-02-19T06:57:16.220Z,1017.66
2018-02-19T06:57:56.773Z,1017.68
2018-02-19T06:58:37.330Z,1017.65
2018-02-19T06:59:17.873Z,1017.71
2018-02-19T06:59:58.441Z,1017.77
2018-02-19T07:00:38.990Z,1017.72
2018-02-19T07:01:19.534Z,1017.76
2018-02-19T07:02:00.088Z,1017.7
2018-02-19T07:02:40.634Z,1017.77
2018-02-19T07:03:21.204Z,1017.77
2018-02-19T07:04:01.748Z,1017.77
2018-02-19T07:04:42.316Z,1017.73
2018-02-19T07:05:22.870Z,1017.73
2018-02-19T07:06:03.426Z,1017.73
2018-02-19T07:06:43.986Z,1017.72
2018-02-19T07:07:24.548Z,1017.74
2018-02-19T07:08:05.112Z,1017.76
2018-02-19T07:08:45.681Z,1017.77
2018-02-19T07:09:26.298Z,1017.76
2018-02-19T07:10:06.856Z,1017.79
2018-02-19T07:10:47.472Z,1017.78
2018-02-19T07:11:27.996Z,1017.73
2018-02-19T07:12:08.548Z,1017.81
2018-02-19T07:12:49.088Z,1017.76
2018-02-19T07:13:29.657Z,1017.8
2018-02-19T07:14:10.210Z,1017.74
2018-02-19T07:14:50.792Z,1017.75
2018-02-19T07:15:31.360Z,1017.76
2018-02-19T07:16:11.915Z,1017.75
2018-02-19T07:16:52.475Z,1017.74
2018-02-19T07:17:33.025Z,1017.76
2018-02-19T07:18:13.585Z,1017.73
2018-02-19T07:18:54.139Z,1017.75
2018-02-19T07:19:34.739Z,1017.77
2018-02-19T07:20:15.276Z,1017.77
2018-02-19T07:20:55.831Z,1017.77
2018-02-19T07:21:36.379Z,1017.77
2018-02-19T07:22:16.910Z,1017.79
2018-02-19T07:22:57.492Z,1017.77
2018-02-19T07:23:38.024Z,1017.75
2018-02-19T07:24:18.585Z,1017.76
2018-02-19T07:24:59.136Z,1017.81
2018-02-19T07:25:39.683Z,1017.76
2018-02-19T07:26:20.238Z,1017.77
2018-02-19T07:27:00.781Z,1017.78
2018-02-19T07:27:41.319Z,1017.84
2018-02-19T07:28:21.891Z,1017.77
2018-02-19T07:29:02.442Z,1017.75
2018-02-19T07:29:42.987Z,1017.75
2018-02-19T07:30:23.540Z,1017.74
2018-02-19T07:31:04.094Z,1017.75
2018-02-19T07:31:44.648Z,1017.77
2018-02-19T07:32:25.206Z,1017.74
2018-02-19T07:33:05.751Z,1017.72
2018-02-19T07:33:46.300Z,1017.71
2018-02-19T07:34:26.844Z,1017.75
2018-02-19T07:35:07.392Z,1017.75
2018-02-19T07:35:47.945Z,1017.71
2018-02-19T07:36:28.471Z,1017.73
2018-02-19T07:37:09.027Z,1017.76
2018-02-19T07:37:49.586Z,1017.75
2018-02-19T07:38:30.263Z,1017.75
2018-02-19T07:39:10.814Z,1017.75
2018-02-19T07:39:51.366Z,1017.77
2018-02-19T07:40:31.930Z,1017.8
2018-02-19T07:41:12.497Z,1017.76
2018-02-19T07:41:53.065Z,1017.73
2018-02-19T07:42:33.632Z,1017.72
2018-02-19T07:43:14.191Z,1017.76
2018-02-19T07:43:54.769Z,1017.76
2018-02-19T07:44:35.329Z,1017.74
2018-02-19T07:45:15.882Z,1017.74
2018-02-19T07:45:56.436Z,1017.74
2018-02-19T07:46:36.982Z,1017.67
2018-02-19T07:47:17.562Z,1017.7
2018-02-19T07:47:58.128Z,1017.67
2018-02-19T07:48:38.686Z,1017.66
2018-02-19T07:49:19.250Z,1017.68
2018-02-19T07:49:59.802Z,1017.66
2018-02-19T07:50:40.362Z,1017.66
2018-02-19T07:51:20.924Z,1017.66
2018-02-19T07:52:01.490Z,1017.63
2018-02-19T07:52:42.040Z,1017.67
2018-02-19T07:53:22.585Z,1017.66
2018-02-19T07:54:03.140Z,1017.66
2018-02-19T07:54:43.696Z,1017.64
2018-02-19T07:55:24.250Z,1017.64
2018-02-19T07:56:04.798Z,1017.63
2018-02-19T07:56:45.394Z,1017.64
2018-02-19T07:57:25.985Z,1017.68
2018-02-19T07:58:06.579Z,1017.69
2018-02-19T07:58:47.146Z,1017.67
2018-02-19T07:59:27.766Z,1017.7
2018-02-19T08:00:08.327Z,1017.71
2018-02-19T08:00:48.867Z,1017.72
2018-02-19T08:01:29.451Z,1017.69
2018-02-19T08:02:10.003Z,1017.69
2018-02-19T08:02:50.569Z,1017.71
2018-02-19T08:03:31.135Z,1017.72
2018-02-19T08:04:11.703Z,1017.73
2018-02-19T08:04:52.292Z,1017.75
2018-02-19T08:05:32.870Z,1017.77
2018-02-19T08:06:13.450Z,1017.76
2018-02-19T08:06:54.001Z,1017.74
2018-02-19T08:07:34.554Z,1017.72
2018-02-19T08:08:15.124Z,1017.73
2018-02-19T08:08:55.673Z,1017.75
2018-02-19T08:09:36.251Z,1017.73
2018-02-19T08:10:16.807Z,1017.69
2018-02-19T08:10:57.373Z,1017.66
2018-02-19T08:11:37.932Z,1017.71
2018-02-19T08:12:18.504Z,1017.75
2018-02-19T08:12:59.098Z,1017.73
2018-02-19T08:13:39.636Z,1017.69
2018-02-19T08:14:20.183Z,1017.73